Lockport, Kentucky
Current Conditions -  °F | °C
As of 7:33 AM on Thursday 23 Oct 2014 (Local Time) from KFFT Reporting Station
Few Clouds Few Clouds  
Wind Chill: 41°   Ceiling: Unl
Heat Index: 41°   Visibility: 10mi
Dew Point: 38°   Wind: 0mph
Humidity: 89%   Direction: NA
Pressure: 30.25"   Gusts: NA
Location:  38.44°N, 84.97°W
Report Text: KFFT 231133Z AUTO 00000KT 10SM FEW027 05/03 A3025 RMK AO2 T00500033
Loading
Personal Weather Stations






























Interactive Weather Map
Tropical Storm Tracking
New forecast layout! Learn more

10-Day Weather Forecast

Advertisements
Track Severe Weather on mobile